Clearwater, FL (33765)

5:21 AM EDT on July 27, 2016 (GMT -0400)
| | Change Station

Elev -9999 ft 0.00 °N, 0.00 °E | Updated

Clear
Clear
79 °F
Feels Like 79 °F
N
2
Wind Variable Wind from East
Gusts mph

Today
High -- | Low -- °F
--% Chance of Precip.
Yesterday
High -- | Low -- °F
Precip. -- in
Pressure 30.06 in
Visibility 10.0 miles
Clouds Few 5000 ft
Scattered Clouds 7000 ft
Dew Point 76 °F
Humidity 88%
Rainfall --
Snow Depth Not available.
6:51 AM 8:23 PM
Last Quarter, 45% visible
METAR KPIE 270853Z AUTO 07004KT 10SM FEW050 SCT070 28/22 A3006 RMK AO2 SLP178 T02780217 55005
Pressure 30.06 in
Visibility 10.0 miles
Clouds Few 5000 ft
Scattered Clouds 7000 ft
Dew Point 76 °F
Humidity 88%
Rainfall --
Snow Depth Not available.
6:51 AM 8:23 PM
Last Quarter, 45% visible
METAR KPIE 270853Z AUTO 07004KT 10SM FEW050 SCT070 28/22 A3006 RMK AO2 SLP178 T02780217 55005

10-Day Weather Forecast

Almanac

Astronomy

Jul. 27, 2016 Rise Set
Actual Time
Civil Twilight
Nautical Twilight
Astronomical Twilight
Moon
Length of Visible Light
Length of Day
Tomorrow will be .
, % of the Moon is Illuminated

Today's Extremes

State Highs State Lows

Community

WunderPhotos

Upload Photos

1,927,818 photos uploaded!

WunderBlog® & News

Nearby

Air Quality

  Air Quality AQ Index Pollutant
Not available.

Snow Depth

Station Depth Elevation

Earthquake Activity

City Distance Mag. Time & Date
Minimum magnitude displayed is 2.5.

Coastal Water Temperatures

Place Temperature

Stations

Nearby Weather Stations

Station Location Temp. Windchill Dew Point Humidity Wind Precip. Elev Updated Type
                   

Watches & Warnings

There are currently no watches in effect.